Time;durP1;ratioP1;P1;durP2;ratioP2;P2;SDS_P1;SDS_P2;PMS_P1;PMS_P2;Temp;Humidity;BMP_temperature;BMP_pressure;BME280_temperature;BME280_humidity;BME280_pressure;Samples;Min_cycle;Max_cycle;Signal;HPM_P1;HPM_P2
2023/04/10 12:16:26;;;;;;;10.23;4.07;;;;;;;22.86;41.65;100493.44;5191222;23;1436332;-82
2023/04/10 12:18:52;;;;;;;11.90;4.03;;;;;;;22.67;41.84;100492.63;4965797;28;20286;-82
2023/04/10 12:21:18;;;;;;;11.83;4.17;;;;;;;22.44;42.28;100497.31;4972277;28;20023;-82
2023/04/10 12:23:43;;;;;;;10.00;3.97;;;;;;;22.21;42.60;100493.97;4962579;28;20294;-82
2023/04/10 12:26:13;;;;;;;9.60;3.87;;;;;;;22.12;43.26;100507.84;4960817;28;20019;-82
2023/04/10 12:28:41;;;;;;;9.52;3.60;;;;;;;22.25;43.33;100511.63;4975842;28;20023;-81
2023/04/10 12:31:08;;;;;;;11.80;4.80;;;;;;;22.28;42.69;100516.00;4962571;28;20497;-82
2023/04/10 12:33:33;;;;;;;9.90;3.60;;;;;;;22.44;42.58;100508.94;4968326;28;20023;-79
2023/04/10 12:35:59;;;;;;;12.03;4.20;;;;;;;22.70;42.71;100503.22;4978110;28;20118;-80
2023/04/10 12:38:41;;;;;;;10.73;4.20;;;;;;;23.03;41.78;100489.84;4978682;28;20023;-81
2023/04/10 12:41:08;;;;;;;11.23;3.97;;;;;;;23.33;41.56;100485.66;4978324;28;20027;-80
2023/04/10 12:43:40;;;;;;;10.63;3.78;;;;;;;23.45;41.11;100479.59;4978554;28;20027;-80
2023/04/10 12:46:07;;;;;;;8.43;3.63;;;;;;;23.53;41.20;100476.47;4978311;28;20030;-81
2023/04/10 12:48:33;;;;;;;13.60;4.75;;;;;;;23.55;40.89;100481.78;4978290;28;20027;-81
2023/04/10 12:50:59;;;;;;;10.80;4.40;;;;;;;23.56;40.54;100483.53;4970100;28;20034;-80
2023/04/10 12:53:26;;;;;;;12.07;4.00;;;;;;;23.62;40.39;100485.84;4958917;28;20506;-81
2023/04/10 12:56:03;;;;;;;7.85;4.13;;;;;;;23.62;40.25;100480.47;4959177;28;20042;-81
2023/04/10 12:58:32;;;;;;;8.32;3.90;;;;;;;23.60;40.36;100485.94;4958818;28;20030;-81
2023/04/10 13:01:01;;;;;;;8.90;3.97;;;;;;;23.65;39.94;100489.25;4958927;28;20121;-81
2023/04/10 13:03:27;;;;;;;9.80;4.00;;;;;;;23.72;40.05;100489.75;4958704;28;20110;-81
2023/04/10 13:05:52;;;;;;;13.23;4.38;;;;;;;23.80;40.13;100495.59;4959170;28;20113;-81
2023/04/10 13:08:19;;;;;;;10.00;4.50;;;;;;;23.78;40.21;100496.63;4961598;28;20529;-81
2023/04/10 13:10:44;;;;;;;10.00;4.20;;;;;;;23.89;40.21;100496.03;4970092;28;20050;-81
2023/04/10 13:13:13;;;;;;;12.40;4.20;;;;;;;23.99;40.10;100491.00;4978257;28;20033;-81
2023/04/10 13:15:39;;;;;;;8.50;4.10;;;;;;;24.05;39.34;100493.34;4977336;28;20106;-81
2023/04/10 13:18:11;;;;;;;12.95;4.10;;;;;;;24.08;39.47;100491.38;4978110;28;20038;-81
2023/04/10 13:20:39;;;;;;;11.43;4.20;;;;;;;24.15;39.80;100485.63;4978050;28;20082;-81
2023/04/10 13:23:06;;;;;;;12.23;5.28;;;;;;;24.19;39.12;100484.50;4977257;28;20890;-82
2023/04/10 13:25:41;;;;;;;17.10;6.47;;;;;;;24.07;38.70;100478.88;4964216;28;20047;-81
2023/04/10 13:28:09;;;;;;;12.27;4.65;;;;;;;23.98;39.17;100486.56;4966510;28;20126;-80
2023/04/10 13:30:37;;;;;;;13.55;4.30;;;;;;;23.93;39.09;100490.38;4978584;28;20041;-82
2023/04/10 13:33:03;;;;;;;10.70;3.75;;;;;;;23.94;38.90;100486.75;4982026;28;20026;-82
2023/04/10 13:35:29;;;;;;;11.03;4.17;;;;;;;24.02;39.50;100480.09;4973109;28;20039;-82
2023/04/10 13:37:54;;;;;;;12.30;4.20;;;;;;;24.14;39.18;100487.47;4962612;28;20263;-83
2023/04/10 13:40:20;;;;;;;11.33;4.27;;;;;;;24.16;38.62;100477.47;4961542;28;20479;-83
2023/04/10 13:42:47;;;;;;;13.02;6.20;;;;;;;24.15;38.59;100477.56;4962766;28;20038;-82
2023/04/10 13:45:12;;;;;;;11.43;5.20;;;;;;;24.10;38.62;100479.66;4962089;28;20027;-81
2023/04/10 13:47:37;;;;;;;12.03;4.47;;;;;;;24.03;38.72;100479.13;4962260;28;20086;-82
2023/04/10 13:50:03;;;;;;;12.07;4.50;;;;;;;24.06;39.24;100479.81;4970042;28;20031;-82
2023/04/10 13:52:28;;;;;;;10.30;4.28;;;;;;;24.14;38.95;100475.81;4970588;28;20034;-82
2023/04/10 13:54:54;;;;;;;10.83;4.90;;;;;;;24.19;38.93;100473.72;4962159;28;20031;-82
2023/04/10 13:57:19;;;;;;;10.83;4.80;;;;;;;24.28;38.97;100472.31;4962089;28;20035;-82
2023/04/10 13:59:45;;;;;;;10.50;4.50;;;;;;;24.36;38.02;100465.53;4961896;28;20170;-82
2023/04/10 14:02:10;;;;;;;12.65;4.05;;;;;;;24.44;37.65;100458.81;4961802;28;20027;-82
2023/04/10 14:04:36;;;;;;;9.87;3.70;;;;;;;24.50;37.94;100461.19;4962145;28;20078;-82
2023/04/10 14:07:01;;;;;;;10.73;3.80;;;;;;;24.54;37.01;100459.16;4961937;28;20054;-82
2023/04/10 14:09:27;;;;;;;13.00;4.10;;;;;;;24.51;36.89;100463.75;4966307;28;20035;-82
2023/04/10 14:11:53;;;;;;;9.00;3.67;;;;;;;24.56;36.62;100455.41;4961764;28;20077;-82
2023/04/10 14:14:20;;;;;;;10.75;3.80;;;;;;;24.50;36.70;100450.41;4966491;28;20027;-82
2023/04/10 14:16:45;;;;;;;8.82;3.50;;;;;;;24.38;36.47;100449.31;4962980;28;20051;-82
2023/04/10 14:19:11;;;;;;;9.63;3.67;;;;;;;24.25;36.56;100449.16;4973063;28;20039;-82
2023/04/10 14:21:36;;;;;;;9.50;3.33;;;;;;;24.17;36.42;100443.34;4976745;28;20235;-82
2023/04/10 14:24:02;;;;;;;8.67;2.67;;;;;;;24.19;36.70;100444.13;4969489;28;20031;-82
2023/04/10 14:26:27;;;;;;;7.73;3.20;;;;;;;24.26;36.19;100452.72;4980819;28;20045;-78
2023/04/10 14:28:52;;;;;;;9.63;3.20;;;;;;;24.30;36.29;100440.81;4974521;28;20407;-82
2023/04/10 14:31:18;;;;;;;10.07;3.30;;;;;;;24.32;36.59;100447.84;4980776;28;20023;-81
2023/04/10 14:33:44;;;;;;;9.20;2.90;;;;;;;24.35;35.56;100441.41;4980710;28;20053;-81
2023/04/10 14:36:10;;;;;;;11.70;2.90;;;;;;;24.33;35.36;100446.00;4965764;28;20494;-85
2023/04/10 14:38:38;;;;;;;8.57;2.70;;;;;;;24.33;35.35;100435.25;5388281;23;20104;-76
2023/04/10 14:41:04;;;;;;;7.75;2.88;;;;;;;24.24;35.39;100433.97;4955404;28;20058;-78
2023/04/10 14:43:29;;;;;;;7.15;2.70;;;;;;;24.02;35.41;100432.53;4945475;28;20495;-80
2023/04/10 14:45:55;;;;;;;9.83;2.70;;;;;;;23.74;36.21;100425.16;4941799;29;20400;-80
2023/04/10 14:48:21;;;;;;;8.20;2.80;;;;;;;23.49;36.50;100419.31;4947833;29;20038;-79
2023/04/10 14:50:48;;;;;;;9.13;3.00;;;;;;;23.31;37.07;100425.75;4940654;29;20024;-81
2023/04/10 14:53:14;;;;;;;18.50;3.22;;;;;;;23.19;37.14;100429.94;4942509;29;20427;-74
2023/04/10 14:55:39;;;;;;;10.13;3.00;;;;;;;23.14;37.52;100440.94;4940676;29;20063;-76
2023/04/10 14:58:07;;;;;;;11.07;3.40;;;;;;;23.16;37.31;100430.97;4944539;28;20484;-76
2023/04/10 15:00:33;;;;;;;8.02;3.05;;;;;;;23.25;37.80;100424.25;4941580;29;20403;-76
2023/04/10 15:02:59;;;;;;;8.80;3.00;;;;;;;23.32;37.85;100435.53;4940146;29;20035;-76
2023/04/10 15:05:25;;;;;;;11.68;3.78;;;;;;;23.40;37.87;100422.53;4941356;29;20032;-76
2023/04/10 15:07:50;;;;;;;9.30;3.47;;;;;;;23.44;37.64;100418.72;4941290;29;20530;-79
2023/04/10 15:10:16;;;;;;;10.13;3.60;;;;;;;23.39;37.95;100418.13;4955339;29;20027;-79
2023/04/10 15:12:42;;;;;;;15.07;3.70;;;;;;;23.36;37.96;100431.72;4944293;28;20031;-77
2023/04/10 15:15:07;;;;;;;12.60;3.67;;;;;;;23.27;38.23;100435.78;4949703;28;20035;-75
2023/04/10 15:17:33;;;;;;;11.93;3.93;;;;;;;23.16;37.98;100430.97;4944541;29;20086;-76
2023/04/10 15:19:59;;;;;;;11.00;4.45;;;;;;;23.10;38.17;100434.00;4945670;29;20120;-76
2023/04/10 15:22:25;;;;;;;17.73;7.10;;;;;;;22.99;38.70;100423.81;4941075;29;20461;-76
2023/04/10 15:24:50;;;;;;;9.43;4.20;;;;;;;22.86;38.84;100423.63;4940689;29;20024;-78
2023/04/10 15:27:18;;;;;;;7.97;4.00;;;;;;;22.84;38.88;100419.25;4941112;29;20040;-76
2023/04/10 15:29:44;;;;;;;9.68;3.97;;;;;;;22.89;38.94;100423.44;4949472;29;20476;-80
2023/04/10 15:32:09;;;;;;;12.77;4.40;;;;;;;22.94;38.71;100428.59;4953549;28;20102;-76
2023/04/10 15:34:35;;;;;;;9.40;3.90;;;;;;;22.99;39.03;100429.19;4942740;28;20051;-76
2023/04/10 15:37:00;;;;;;;13.50;4.30;;;;;;;22.92;39.10;100434.03;4948260;28;20086;-77
2023/04/10 15:39:25;;;;;;;8.27;3.90;;;;;;;22.82;39.29;100438.16;4940390;29;20044;-77
2023/04/10 15:41:52;;;;;;;12.73;4.10;;;;;;;22.63;39.56;100440.91;4942172;29;20407;-77
2023/04/10 15:44:18;;;;;;;9.75;3.53;;;;;;;22.53;39.76;100443.19;4953652;29;20042;-77
2023/04/10 15:46:45;;;;;;;13.20;4.25;;;;;;;22.48;40.14;100442.56;4953235;28;20700;-78
2023/04/10 15:49:11;;;;;;;13.57;4.13;;;;;;;22.40;40.63;100437.56;4954075;29;20167;-78
2023/04/10 15:51:36;;;;;;;11.87;3.80;;;;;;;22.37;40.76;100451.13;4938291;29;20092;-77
2023/04/10 15:54:03;;;;;;;12.93;4.10;;;;;;;22.37;40.77;100443.97;4947008;29;20042;-77
2023/04/10 15:56:30;;;;;;;13.13;4.07;;;;;;;22.42;40.48;100448.22;4947960;28;20032;-78
2023/04/10 15:58:55;;;;;;;14.40;4.03;;;;;;;22.42;40.74;100454.44;4939194;29;20035;-78
2023/04/10 16:01:20;;;;;;;11.77;3.70;;;;;;;22.45;40.54;100456.13;4940548;29;20031;-78
2023/04/10 16:03:47;;;;;;;13.77;4.00;;;;;;;22.43;40.55;100448.16;4940293;29;20031;-78
2023/04/10 16:06:13;;;;;;;11.25;3.38;;;;;;;22.42;40.53;100461.66;4947911;29;20030;-78
2023/04/10 16:08:38;;;;;;;13.60;4.10;;;;;;;22.43;40.68;100461.59;4945254;28;20086;-78
2023/04/10 16:11:04;;;;;;;9.60;3.73;;;;;;;22.34;40.64;100454.88;4954440;29;20616;-78
2023/04/10 16:13:30;;;;;;;11.33;3.93;;;;;;;22.26;40.74;100465.09;4953500;28;20027;-78
2023/04/10 16:15:55;;;;;;;11.18;3.65;;;;;;;22.20;40.93;100468.09;4940326;29;20028;-76
2023/04/10 16:18:20;;;;;;;12.13;3.60;;;;;;;22.11;41.08;100471.22;4940198;29;20032;-72
2023/04/10 16:20:46;;;;;;;9.80;3.30;;;;;;;22.04;41.16;100463.47;4950492;29;20471;-73
2023/04/10 16:23:11;;;;;;;10.20;3.50;;;;;;;22.04;41.38;100468.81;4957882;28;20110;-77
2023/04/10 16:25:37;;;;;;;8.53;3.03;;;;;;;21.98;41.45;100476.31;4955194;29;20657;-76
2023/04/10 16:28:05;;;;;;;7.75;3.25;;;;;;;21.96;41.66;100471.03;4953987;28;20042;-75
2023/04/10 16:30:30;;;;;;;9.77;3.50;;;;;;;21.93;41.67;100466.66;4954830;29;20032;-74
2023/04/10 16:32:56;;;;;;;10.50;3.47;;;;;;;21.91;42.33;100470.38;4953368;28;20023;-75
2023/04/10 16:35:21;;;;;;;10.53;3.40;;;;;;;21.89;42.15;100469.59;4943132;29;20027;-74
2023/04/10 16:37:46;;;;;;;13.00;3.63;;;;;;;21.90;42.35;100474.00;4950464;28;20024;-74
2023/04/10 16:40:12;;;;;;;12.60;3.70;;;;;;;21.85;42.13;100468.84;4949303;29;20504;-74
2023/04/10 16:42:38;;;;;;;11.90;3.13;;;;;;;21.78;42.11;100467.44;4949631;29;20027;-74
2023/04/10 16:45:04;;;;;;;10.32;3.10;;;;;;;21.77;42.47;100469.22;4955699;29;20051;-73
2023/04/10 16:47:30;;;;;;;14.37;3.30;;;;;;;21.69;42.89;100463.38;4958624;28;20035;-77
2023/04/10 16:49:55;;;;;;;8.23;2.75;;;;;;;21.59;42.76;100470.94;4945817;29;20094;-77
2023/04/10 16:52:21;;;;;;;11.97;3.40;;;;;;;21.50;43.17;100480.28;4939230;29;20043;-74
2023/04/10 16:54:46;;;;;;;12.70;2.90;;;;;;;21.41;43.12;100475.34;4939665;29;20031;-74
2023/04/10 16:57:11;;;;;;;7.70;2.93;;;;;;;21.39;43.64;100471.88;4940281;29;20515;-75
2023/04/10 16:59:38;;;;;;;10.07;2.90;;;;;;;21.38;43.55;100475.50;4944838;29;20299;-76
2023/04/10 17:02:03;;;;;;;9.55;3.00;;;;;;;21.30;43.72;100475.84;4942644;29;20133;-74
2023/04/10 17:04:28;;;;;;;9.00;3.13;;;;;;;21.26;43.47;100470.69;4946965;28;20027;-74
2023/04/10 17:06:54;;;;;;;10.17;3.17;;;;;;;21.17;43.85;100475.53;4939474;29;20036;-75
2023/04/10 17:09:19;;;;;;;12.47;3.63;;;;;;;21.04;44.25;100472.53;4946587;29;20034;-75
2023/04/10 17:11:45;;;;;;;10.63;3.47;;;;;;;20.98;44.08;100477.28;4940339;28;20036;-75
2023/04/10 17:14:12;;;;;;;8.93;3.50;;;;;;;20.93;44.38;100485.50;4939586;29;20063;-75
2023/04/10 17:16:38;;;;;;;12.05;3.25;;;;;;;20.86;44.79;100479.59;4937978;29;20504;-75
2023/04/10 17:19:03;;;;;;;11.60;3.77;;;;;;;20.81;44.64;100486.06;4938196;29;20076;-74
2023/04/10 17:21:30;;;;;;;9.35;3.70;;;;;;;20.81;45.11;100486.91;4953885;29;20039;-75
2023/04/10 17:23:55;;;;;;;10.57;3.43;;;;;;;20.84;44.88;100492.13;4956718;28;20108;-74
2023/04/10 17:26:22;;;;;;;12.90;3.75;;;;;;;20.78;45.14;100487.03;4953596;29;20503;-74
2023/04/10 17:28:48;;;;;;;11.13;3.23;;;;;;;20.68;44.71;100478.53;4953768;28;20507;-74
2023/04/10 17:31:14;;;;;;;8.68;3.35;;;;;;;20.61;45.00;100487.75;4958509;28;20062;-74
2023/04/10 17:33:43;;;;;;;11.80;3.03;;;;;;;20.55;45.17;100485.34;4958227;28;20039;-74
2023/04/10 17:36:10;;;;;;;12.85;3.15;;;;;;;20.49;44.97;100481.13;4958412;28;20487;-73
2023/04/10 17:38:37;;;;;;;12.57;3.70;;;;;;;20.42;45.33;100485.84;4957760;28;20039;-73
2023/04/10 17:41:03;;;;;;;12.00;4.13;;;;;;;20.40;45.27;100486.88;4958074;28;20071;-73
2023/04/10 17:43:29;;;;;;;9.68;3.08;;;;;;;20.35;45.07;100495.91;4957995;28;20399;-75
2023/04/10 17:45:54;;;;;;;10.87;3.20;;;;;;;20.26;45.18;100482.09;4958287;28;20035;-75
2023/04/10 17:48:19;;;;;;;7.88;3.30;;;;;;;20.22;45.15;100492.03;4948489;28;20040;-75
2023/04/10 17:50:45;;;;;;;9.23;3.77;;;;;;;20.19;45.32;100492.16;4939321;29;20041;-76
2023/04/10 17:53:10;;;;;;;15.73;4.67;;;;;;;20.15;45.57;100498.56;4942136;29;20032;-74
2023/04/10 17:55:39;;;;;;;11.90;4.13;;;;;;;20.06;45.77;100491.78;4938677;29;20028;-76
2023/04/10 17:58:05;;;;;;;10.27;3.90;;;;;;;19.99;45.86;100488.47;4941519;29;20036;-75
2023/04/10 18:00:32;;;;;;;15.65;5.80;;;;;;;19.93;45.96;100486.06;4948367;28;20060;-76
2023/04/10 18:02:59;;;;;;;13.77;3.17;;;;;;;19.88;46.23;100480.84;4937627;29;20032;-74
2023/04/10 18:05:26;;;;;;;16.03;5.13;;;;;;;19.83;46.30;100488.19;4940505;29;20063;-75
2023/04/10 18:07:51;;;;;;;9.52;3.42;;;;;;;19.77;46.23;100494.63;4958103;28;20034;-75
2023/04/10 18:10:17;;;;;;;10.43;3.00;;;;;;;19.74;46.49;100494.75;4951826;28;20035;-75
2023/04/10 18:12:42;;;;;;;14.13;4.30;;;;;;;19.68;46.90;100492.34;4956568;28;20082;-74
2023/04/10 18:15:08;;;;;;;17.83;6.10;;;;;;;19.58;46.85;100499.81;4960707;28;20056;-73
2023/04/10 18:17:35;;;;;;;8.33;3.10;;;;;;;19.52;46.97;100500.03;4961517;28;20117;-76
2023/04/10 18:20:00;;;;;;;14.37;4.47;;;;;;;19.47;46.81;100492.22;4957630;28;20695;-76
2023/04/10 18:22:27;;;;;;;14.97;4.20;;;;;;;19.41;46.60;100494.22;4942362;29;20076;-75
2023/04/10 18:24:53;;;;;;;11.07;3.00;;;;;;;19.32;46.50;100498.13;4954609;29;20779;-75
2023/04/10 18:27:19;;;;;;;10.23;3.45;;;;;;;19.26;46.69;100503.69;4941951;29;20539;-75
2023/04/10 18:29:45;;;;;;;9.05;3.92;;;;;;;19.20;46.36;100505.66;4955826;28;20058;-75
2023/04/10 18:32:10;;;;;;;11.20;3.50;;;;;;;19.13;46.40;100519.28;4961480;28;20490;-75
2023/04/10 18:34:36;;;;;;;9.65;3.70;;;;;;;19.07;46.35;100525.69;4961232;28;20047;-73
2023/04/10 18:37:01;;;;;;;10.57;3.17;;;;;;;19.00;46.50;100521.50;4960666;28;20035;-73
2023/04/10 18:39:27;;;;;;;9.87;3.03;;;;;;;18.93;46.46;100521.69;4960505;28;20043;-73
2023/04/10 18:41:52;;;;;;;10.03;2.87;;;;;;;18.85;46.11;100523.75;4953086;28;20039;-73
2023/04/10 18:44:17;;;;;;;8.57;2.90;;;;;;;18.80;46.32;100523.03;4947337;29;20031;-73
2023/04/10 18:46:43;;;;;;;10.03;2.83;;;;;;;18.75;46.19;100533.84;4941964;29;20268;-73
2023/04/10 18:49:09;;;;;;;7.60;2.60;;;;;;;18.73;46.00;100545.53;4946714;29;20099;-73
2023/04/10 18:51:35;;;;;;;11.75;2.90;;;;;;;18.67;46.03;100549.25;4941750;29;20110;-71
2023/04/10 18:54:03;;;;;;;12.07;2.70;;;;;;;18.63;45.99;100548.47;4941134;29;20059;-72
2023/04/10 18:56:29;;;;;;;10.25;3.10;;;;;;;18.60;46.01;100555.72;4941435;29;20036;-72
2023/04/10 18:58:55;;;;;;;10.65;3.08;;;;;;;18.54;46.20;100559.47;4941294;29;20043;-73
2023/04/10 19:01:20;;;;;;;8.67;2.70;;;;;;;18.49;46.25;100558.75;4946810;29;20027;-72
2023/04/10 19:03:45;;;;;;;13.00;3.47;;;;;;;18.42;46.36;100559.84;4960359;28;20114;-72
2023/04/10 19:06:11;;;;;;;11.53;3.00;;;;;;;18.36;46.50;100563.59;4957544;28;20035;-72
2023/04/10 19:08:36;;;;;;;7.03;2.63;;;;;;;18.31;46.66;100566.41;4955800;28;20102;-73
2023/04/10 19:11:06;;;;;;;9.03;2.80;;;;;;;18.28;46.68;100573.63;4959672;28;20027;-73
2023/04/10 19:13:31;;;;;;;9.10;2.92;;;;;;;18.22;46.77;100583.56;4946683;29;20542;-72
2023/04/10 19:15:57;;;;;;;10.05;3.30;;;;;;;18.18;47.05;100583.69;4950487;29;20035;-72
2023/04/10 19:18:23;;;;;;;11.07;3.27;;;;;;;18.15;46.78;100591.78;4946182;28;20439;-72
2023/04/10 19:20:48;;;;;;;10.27;3.40;;;;;;;18.10;47.40;100599.03;4940533;29;20031;-72
2023/04/10 19:23:13;;;;;;;13.57;3.27;;;;;;;18.05;47.18;100589.41;4940620;29;20032;-72
2023/04/10 19:25:40;;;;;;;12.43;3.17;;;;;;;17.99;47.56;100600.22;4938761;29;20129;-72
2023/04/10 19:28:05;;;;;;;12.30;2.97;;;;;;;17.98;47.64;100592.25;4947063;29;20071;-72
2023/04/10 19:30:31;;;;;;;9.77;3.07;;;;;;;17.97;47.70;100604.72;4950627;29;20086;-73
2023/04/10 19:32:56;;;;;;;10.60;3.20;;;;;;;17.93;47.95;100600.38;4952747;29;20042;-72
2023/04/10 19:35:22;;;;;;;11.77;4.10;;;;;;;17.88;48.23;100599.66;4950702;29;20047;-73
2023/04/10 19:37:48;;;;;;;12.23;3.63;;;;;;;17.84;48.40;100611.31;4955528;29;20042;-72
2023/04/10 19:40:14;;;;;;;10.07;3.40;;;;;;;17.79;48.64;100624.75;4953913;28;20133;-73
2023/04/10 19:42:40;;;;;;;12.98;4.43;;;;;;;17.74;48.89;100621.34;4950199;28;20059;-71
2023/04/10 19:45:06;;;;;;;12.83;4.33;;;;;;;17.69;48.99;100624.13;4953904;28;20028;-71
2023/04/10 19:47:31;;;;;;;11.07;3.30;;;;;;;17.62;49.38;100628.78;4953910;28;20110;-72
2023/04/10 19:49:57;;;;;;;10.87;3.60;;;;;;;17.61;49.35;100628.81;4951426;29;20519;-72
2023/04/10 19:52:23;;;;;;;9.83;3.07;;;;;;;17.59;49.44;100622.66;4956744;28;20027;-72
2023/04/10 19:54:48;;;;;;;8.20;3.20;;;;;;;17.58;49.54;100631.56;4950591;29;20051;-72
2023/04/10 19:57:14;;;;;;;9.70;3.13;;;;;;;17.56;49.64;100634.25;4953418;29;20059;-72
2023/04/10 19:59:39;;;;;;;9.32;2.60;;;;;;;17.56;49.75;100634.25;4950421;29;20027;-72
2023/04/10 20:02:05;;;;;;;15.37;4.60;;;;;;;17.59;50.01;100633.31;4954756;29;20070;-73
2023/04/10 20:04:30;;;;;;;10.70;3.20;;;;;;;17.56;50.09;100638.72;4953851;28;20023;-73
2023/04/10 20:06:56;;;;;;;8.98;2.80;;;;;;;17.53;50.29;100644.13;4951408;28;20114;-72
2023/04/10 20:09:21;;;;;;;6.83;2.70;;;;;;;17.49;50.35;100649.56;4953555;28;20114;-72
2023/04/10 20:11:46;;;;;;;8.43;2.43;;;;;;;17.48;50.37;100645.13;4951993;28;20030;-72
2023/04/10 20:14:12;;;;;;;9.20;2.00;;;;;;;17.46;50.50;100648.75;4950565;29;20031;-72
2023/04/10 20:16:37;;;;;;;7.73;2.27;;;;;;;17.43;50.56;100655.00;4956003;29;20023;-72
2023/04/10 20:19:03;;;;;;;9.13;2.55;;;;;;;17.42;50.73;100653.25;4953567;28;20206;-73
2023/04/10 20:21:28;;;;;;;8.07;2.50;;;;;;;17.41;50.83;100654.19;4950748;28;20023;-73
2023/04/10 20:23:56;;;;;;;8.55;2.55;;;;;;;17.39;51.09;100656.00;4949417;28;20464;-73
2023/04/10 20:26:24;;;;;;;8.33;1.90;;;;;;;17.38;51.22;100656.94;4951088;28;20028;-74
2023/04/10 20:28:52;;;;;;;8.25;2.38;;;;;;;17.37;51.35;100660.50;4954021;29;20114;-73
2023/04/10 20:31:18;;;;;;;8.18;1.95;;;;;;;17.38;51.19;100666.72;4950924;29;20059;-73
2023/04/10 20:33:44;;;;;;;7.17;2.90;;;;;;;17.38;51.21;100662.25;4954468;28;20031;-73
2023/04/10 20:36:09;;;;;;;16.85;5.72;;;;;;;17.35;51.47;100665.00;4952386;28;20031;-72
2023/04/10 20:38:35;;;;;;;9.37;2.40;;;;;;;17.33;51.43;100662.38;4950054;28;20051;-72
2023/04/10 20:41:00;;;;;;;16.48;5.68;;;;;;;17.34;51.41;100673.91;4954938;28;20487;-73
2023/04/10 20:43:26;;;;;;;11.63;3.33;;;;;;;17.35;51.24;100683.63;4950286;29;20031;-71
2023/04/10 20:45:51;;;;;;;9.67;2.30;;;;;;;17.34;51.52;100688.06;4950642;28;20034;-72
2023/04/10 20:48:17;;;;;;;6.40;1.93;;;;;;;17.34;51.64;100687.22;4949248;28;20139;-72
2023/04/10 20:50:45;;;;;;;14.27;4.90;;;;;;;17.32;51.51;100695.22;4953067;28;20094;-72
2023/04/10 20:53:13;;;;;;;8.93;2.90;;;;;;;17.30;51.77;100696.19;4950767;28;20476;-71
2023/04/10 20:55:39;;;;;;;9.18;2.53;;;;;;;17.27;51.72;100702.44;4952153;29;20035;-72
2023/04/10 20:58:05;;;;;;;9.90;2.70;;;;;;;17.22;52.08;100705.22;4951484;28;20042;-72
2023/04/10 21:00:31;;;;;;;9.95;2.80;;;;;;;17.17;52.32;100704.47;4950328;28;20027;-72
2023/04/10 21:02:58;;;;;;;7.20;1.90;;;;;;;17.13;52.45;100705.47;4948066;28;20480;-72
2023/04/10 21:05:23;;;;;;;15.07;5.35;;;;;;;17.08;52.41;100704.69;4950052;28;20032;-71
2023/04/10 21:07:49;;;;;;;6.70;2.40;;;;;;;17.07;52.29;100705.63;4952375;28;20137;-71
2023/04/10 21:10:14;;;;;;;10.70;2.30;;;;;;;17.03;52.65;100703.94;4951700;29;20031;-72
2023/04/10 21:12:39;;;;;;;8.20;1.85;;;;;;;16.96;52.86;100715.59;4953294;28;20063;-73
2023/04/10 21:15:05;;;;;;;7.37;1.93;;;;;;;16.89;53.21;100718.41;4951336;28;20043;-72
2023/04/10 21:17:31;;;;;;;5.57;1.60;;;;;;;16.85;52.92;100721.16;4954353;29;20023;-72
2023/04/10 21:19:57;;;;;;;7.10;2.20;;;;;;;16.84;53.23;100722.06;4951773;28;20030;-72
2023/04/10 21:22:23;;;;;;;7.68;2.03;;;;;;;16.80;53.50;100723.94;4950834;29;20071;-72
2023/04/10 21:24:49;;;;;;;5.20;1.33;;;;;;;16.76;53.55;100727.59;4957179;28;20518;-74
2023/04/10 21:27:14;;;;;;;7.40;1.45;;;;;;;16.76;53.25;100727.59;4958598;28;20038;-74
2023/04/10 21:29:40;;;;;;;7.07;1.63;;;;;;;16.77;53.50;100729.34;4951914;28;20054;-74
2023/04/10 21:32:05;;;;;;;8.47;1.47;;;;;;;16.75;53.43;100739.09;4956469;28;20038;-74
2023/04/10 21:34:30;;;;;;;6.97;1.67;;;;;;;16.74;53.44;100740.00;4957745;28;20027;-74
2023/04/10 21:36:56;;;;;;;6.80;1.40;;;;;;;16.74;53.51;100740.00;4942360;28;20039;-74
2023/04/10 21:39:21;;;;;;;9.90;1.83;;;;;;;16.72;53.62;100742.72;4952192;29;20051;-74
2023/04/10 21:41:47;;;;;;;8.17;1.10;;;;;;;16.69;53.65;100741.91;4936617;29;20027;-74
2023/04/10 21:44:12;;;;;;;6.67;1.37;;;;;;;16.64;54.23;100734.06;4949936;29;20047;-74
2023/04/10 21:46:38;;;;;;;7.20;1.60;;;;;;;16.62;53.92;100731.41;4937590;29;20264;-74
2023/04/10 21:49:03;;;;;;;8.57;1.63;;;;;;;16.58;54.08;100729.72;4946843;28;20028;-74
2023/04/10 21:51:29;;;;;;;6.65;1.50;;;;;;;16.56;54.38;100730.66;4946532;29;20031;-74
2023/04/10 21:53:56;;;;;;;4.17;1.20;;;;;;;16.55;54.35;100723.59;4942578;29;20094;-74
2023/04/10 21:56:21;;;;;;;4.50;1.17;;;;;;;16.52;54.56;100727.22;4942780;29;20023;-74
2023/04/10 21:58:47;;;;;;;5.63;1.13;;;;;;;16.47;54.63;100726.41;4943082;29;20054;-74
2023/04/10 22:01:12;;;;;;;8.13;1.40;;;;;;;16.41;54.88;100724.78;4942529;29;20031;-74
2023/04/10 22:03:38;;;;;;;7.47;1.30;;;;;;;16.39;55.27;100712.41;4942456;29;20279;-74
2023/04/10 22:06:03;;;;;;;5.63;1.23;;;;;;;16.35;54.96;100715.16;4942234;29;20051;-74
2023/04/10 22:08:29;;;;;;;6.88;1.20;;;;;;;16.33;54.98;100710.75;4946663;29;20508;-74
2023/04/10 22:10:54;;;;;;;4.23;1.00;;;;;;;16.33;55.05;100705.44;4960276;29;20035;-74
2023/04/10 22:13:19;;;;;;;5.03;1.40;;;;;;;16.33;54.64;100713.41;4961440;28;20054;-73
2023/04/10 22:15:46;;;;;;;4.37;1.00;;;;;;;16.30;54.94;100719.69;4961735;28;20034;-74
2023/04/10 22:18:11;;;;;;;6.00;1.20;;;;;;;16.29;55.01;100728.56;4961586;28;20027;-74
2023/04/10 22:20:36;;;;;;;6.80;1.37;;;;;;;16.28;55.21;100720.63;4952315;28;20032;-74
2023/04/10 22:23:03;;;;;;;7.90;1.23;;;;;;;16.27;55.20;100725.03;4942338;29;20608;-74
2023/04/10 22:25:29;;;;;;;6.13;1.35;;;;;;;16.24;55.47;100719.78;4942071;29;20031;-74
2023/04/10 22:27:56;;;;;;;6.57;1.30;;;;;;;16.24;55.42;100721.59;4943892;29;20086;-74
2023/04/10 22:30:22;;;;;;;4.95;1.38;;;;;;;16.21;55.62;100714.53;4955968;29;20187;-74
2023/04/10 22:32:47;;;;;;;4.30;1.17;;;;;;;16.17;55.58;100710.19;4961597;28;20030;-74
2023/04/10 22:35:12;;;;;;;6.47;1.23;;;;;;;16.14;55.64;100707.59;4961345;28;20019;-74
2023/04/10 22:37:38;;;;;;;6.23;1.37;;;;;;;16.12;55.57;100714.72;4960822;28;20266;-74
2023/04/10 22:40:04;;;;;;;4.03;1.07;;;;;;;16.10;55.42;100721.88;4960746;28;20050;-74
2023/04/10 22:42:29;;;;;;;6.50;1.25;;;;;;;16.03;55.96;100732.59;4945183;28;20035;-74
2023/04/10 22:44:55;;;;;;;5.67;1.30;;;;;;;16.02;55.84;100738.81;4941814;29;20036;-74
2023/04/10 22:47:20;;;;;;;7.53;1.00;;;;;;;16.02;55.65;100741.47;4948720;29;20034;-74
2023/04/10 22:49:46;;;;;;;6.53;1.20;;;;;;;16.04;55.83;100755.63;4950124;28;20032;-75
2023/04/10 22:52:12;;;;;;;5.82;0.95;;;;;;;16.03;55.83;100745.88;4941509;29;20023;-74
2023/04/10 22:54:37;;;;;;;5.53;1.08;;;;;;;15.99;56.18;100741.53;4941723;29;20031;-74
2023/04/10 22:57:03;;;;;;;5.10;1.20;;;;;;;15.95;55.93;100728.34;4941754;29;20072;-74
2023/04/10 22:59:28;;;;;;;4.53;1.17;;;;;;;15.92;56.09;100718.66;4941168;29;20034;-74
2023/04/10 23:01:54;;;;;;;6.80;1.10;;;;;;;15.85;56.72;100706.38;4941557;29;20119;-74
2023/04/10 23:04:19;;;;;;;6.97;1.30;;;;;;;15.79;56.66;100712.66;4941792;29;20373;-74
2023/04/10 23:06:45;;;;;;;5.78;1.23;;;;;;;15.74;56.91;100715.38;4941458;29;20027;-74
2023/04/10 23:09:11;;;;;;;5.22;1.42;;;;;;;15.70;57.08;100721.66;4944277;29;20075;-74
2023/04/10 23:11:36;;;;;;;6.47;1.30;;;;;;;15.68;57.04;100720.81;4941590;29;20027;-74
2023/04/10 23:14:02;;;;;;;7.83;1.27;;;;;;;15.68;57.05;100710.19;4941440;29;20028;-74
2023/04/10 23:16:27;;;;;;;7.93;1.10;;;;;;;15.68;56.83;100707.53;4941179;29;20051;-74
2023/04/10 23:18:53;;;;;;;6.40;1.40;;;;;;;15.66;57.06;100701.38;4941546;29;20035;-74
2023/04/10 23:21:19;;;;;;;6.43;1.30;;;;;;;15.60;57.22;100693.56;4955747;29;20034;-74
2023/04/10 23:23:44;;;;;;;7.97;1.20;;;;;;;15.55;57.57;100696.28;4959803;28;20146;-74
2023/04/10 23:26:12;;;;;;;5.17;1.37;;;;;;;15.50;57.59;100695.50;4960573;28;20046;-74
2023/04/10 23:28:38;;;;;;;7.13;1.35;;;;;;;15.46;58.00;100693.78;4950173;28;20032;-74
2023/04/10 23:31:03;;;;;;;6.67;1.20;;;;;;;15.44;57.85;100693.81;4939692;29;20377;-74